createdAt,value
2017-12-31T00:02:37.182Z,15.83
2017-12-31T00:17:35.098Z,36.73
2017-12-31T00:32:35.092Z,38.23
2017-12-31T00:47:34.994Z,40.60
2017-12-31T01:02:34.456Z,38.40
2017-12-31T01:17:38.731Z,35.20
2017-12-31T01:32:35.651Z,39.23
2017-12-31T01:47:38.159Z,35.53
2017-12-31T02:02:34.618Z,39.17
2017-12-31T02:17:34.559Z,34.20
2017-12-31T02:32:34.576Z,28.63
2017-12-31T02:47:34.024Z,50.87
2017-12-31T03:02:34.850Z,44.63
2017-12-31T03:17:34.911Z,39.43
2017-12-31T03:32:36.744Z,36.17
2017-12-31T03:47:34.297Z,36.40
2017-12-31T04:02:35.106Z,41.80
2017-12-31T04:17:35.016Z,35.80
2017-12-31T04:32:34.958Z,37.30
2017-12-31T04:47:36.963Z,40.33
2017-12-31T05:02:37.074Z,47.13
2017-12-31T05:17:36.739Z,42.90
2017-12-31T05:32:35.252Z,37.00
2017-12-31T05:47:35.160Z,30.60
2017-12-31T06:02:34.487Z,27.83
2017-12-31T06:17:34.431Z,32.10
2017-12-31T06:32:34.682Z,29.40
2017-12-31T06:47:34.391Z,29.70
2017-12-31T07:02:34.726Z,32.27
2017-12-31T07:17:34.174Z,31.07
2017-12-31T07:32:36.654Z,37.33
2017-12-31T07:47:35.870Z,42.47
2017-12-31T08:02:36.288Z,37.53
2017-12-31T08:17:34.955Z,34.07
2017-12-31T08:32:34.874Z,26.77
2017-12-31T08:47:35.332Z,26.23
2017-12-31T09:02:38.263Z,27.50
2017-12-31T09:17:35.082Z,30.07
2017-12-31T09:32:35.125Z,26.67
2017-12-31T09:47:35.114Z,25.80
2017-12-31T10:02:35.045Z,22.73
2017-12-31T10:17:34.614Z,24.73
2017-12-31T10:32:36.049Z,27.50
2017-12-31T10:47:34.528Z,24.60
2017-12-31T11:02:34.028Z,24.00
2017-12-31T11:17:35.100Z,25.37
2017-12-31T11:32:34.274Z,30.23
2017-12-31T11:47:34.290Z,24.07
2017-12-31T12:02:34.246Z,27.63
2017-12-31T12:17:40.336Z,33.07
2017-12-31T12:32:34.233Z,29.67
2017-12-31T12:47:34.229Z,26.13
2017-12-31T13:02:35.224Z,53.13
2017-12-31T13:17:34.283Z,34.30
2017-12-31T13:32:34.505Z,35.73
2017-12-31T13:47:35.182Z,35.10
2017-12-31T14:02:34.383Z,34.63
2017-12-31T14:17:34.739Z,37.37
2017-12-31T14:32:36.671Z,31.33
2017-12-31T14:47:34.639Z,29.70
2017-12-31T15:02:34.618Z,35.10
2017-12-31T15:17:34.319Z,49.03
2017-12-31T15:32:36.197Z,48.83
2017-12-31T15:47:34.186Z,65.80
2017-12-31T16:02:35.135Z,61.00
2017-12-31T16:17:33.497Z,55.20
2017-12-31T16:32:33.425Z,58.90
2017-12-31T16:47:34.958Z,76.47
2017-12-31T17:02:34.392Z,80.23
2017-12-31T17:17:33.727Z,108.67
2017-12-31T17:32:33.783Z,108.60
2017-12-31T17:47:36.142Z,126.13
2017-12-31T18:02:33.684Z,80.67
2017-12-31T18:17:34.122Z,71.93
2017-12-31T18:32:35.976Z,78.43
2017-12-31T18:47:33.962Z,125.03
2017-12-31T19:02:33.338Z,201.33
2017-12-31T19:17:35.225Z,295.87
2017-12-31T19:32:33.303Z,320.13
2017-12-31T19:47:34.807Z,286.67
2017-12-31T20:02:33.975Z,137.03
2017-12-31T20:17:35.547Z,120.47
2017-12-31T20:32:35.401Z,113.27
2017-12-31T20:47:36.864Z,105.87
2017-12-31T21:02:35.069Z,137.43
2017-12-31T21:17:35.934Z,173.00
2017-12-31T21:32:33.868Z,143.93
2017-12-31T21:47:36.295Z,85.73
2017-12-31T22:02:34.763Z,74.20
2017-12-31T22:17:36.231Z,77.00
2017-12-31T22:32:36.773Z,166.60
2017-12-31T22:47:34.534Z,108.17
2017-12-31T23:02:34.557Z,199.67
2017-12-31T23:17:38.332Z,273.17
2017-12-31T23:32:41.848Z,173.33
2017-12-31T23:47:37.890Z,271.43
